sensor_id;sensor_type;location;lat;lon;timestamp;pressure;altitude;pressure_sealevel;temperature;humidity
46129;BME280;31860;45.186;5.790;2024-03-22T00:01:46;99718.69;;;19.02;100.00
46129;BME280;31860;45.186;5.790;2024-03-22T00:04:12;99718.69;;;19.01;100.00
46129;BME280;31860;45.186;5.790;2024-03-22T00:06:38;99722.25;;;19.00;100.00
46129;BME280;31860;45.186;5.790;2024-03-22T00:09:04;99716.97;;;19.00;100.00
46129;BME280;31860;45.186;5.790;2024-03-22T00:11:29;99720.59;;;18.96;100.00
46129;BME280;31860;45.186;5.790;2024-03-22T00:13:55;99725.94;;;18.94;100.00
46129;BME280;31860;45.186;5.790;2024-03-22T00:16:20;99722.41;;;18.93;100.00
46129;BME280;31860;45.186;5.790;2024-03-22T00:18:46;99731.25;;;18.94;100.00
46129;BME280;31860;45.186;5.790;2024-03-22T00:21:11;99723.63;;;18.80;100.00
46129;BME280;31860;45.186;5.790;2024-03-22T00:23:36;99734.34;;;18.76;100.00
46129;BME280;31860;45.186;5.790;2024-03-22T00:26:02;99729.25;;;18.68;100.00
46129;BME280;31860;45.186;5.790;2024-03-22T00:28:27;99727.47;;;18.67;100.00
46129;BME280;31860;45.186;5.790;2024-03-22T00:30:52;99713.47;;;18.64;100.00
46129;BME280;31860;45.186;5.790;2024-03-22T00:33:18;99725.81;;;18.63;100.00
46129;BME280;31860;45.186;5.790;2024-03-22T00:35:43;99728.41;;;18.65;100.00
46129;BME280;31860;45.186;5.790;2024-03-22T00:38:08;99721.44;;;18.62;100.00
46129;BME280;31860;45.186;5.790;2024-03-22T00:40:34;99730.28;;;18.61;100.00
46129;BME280;31860;45.186;5.790;2024-03-22T00:42:59;99732.06;;;18.59;100.00
46129;BME280;31860;45.186;5.790;2024-03-22T00:45:25;99724.09;;;18.62;100.00
46129;BME280;31860;45.186;5.790;2024-03-22T00:47:51;99724.91;;;18.64;100.00
46129;BME280;31860;45.186;5.790;2024-03-22T00:50:16;99726.69;;;18.64;100.00
46129;BME280;31860;45.186;5.790;2024-03-22T00:52:42;99724.88;;;18.66;100.00
46129;BME280;31860;45.186;5.790;2024-03-22T00:55:07;99730.22;;;18.64;100.00
46129;BME280;31860;45.186;5.790;2024-03-22T00:57:33;99729.28;;;18.65;100.00
46129;BME280;31860;45.186;5.790;2024-03-22T00:59:58;99726.59;;;18.67;100.00
46129;BME280;31860;45.186;5.790;2024-03-22T01:02:23;99732.03;;;18.62;100.00
46129;BME280;31860;45.186;5.790;2024-03-22T01:04:49;99723.28;;;18.59;100.00
46129;BME280;31860;45.186;5.790;2024-03-22T01:07:14;99720.78;;;18.53;100.00
46129;BME280;31860;45.186;5.790;2024-03-22T01:09:39;99721.72;;;18.50;100.00
46129;BME280;31860;45.186;5.790;2024-03-22T01:12:05;99719.22;;;18.44;100.00
46129;BME280;31860;45.186;5.790;2024-03-22T01:14:31;99714.84;;;18.40;100.00
46129;BME280;31860;45.186;5.790;2024-03-22T01:16:57;99716.75;;;18.35;100.00
46129;BME280;31860;45.186;5.790;2024-03-22T01:19:22;99716.00;;;18.30;100.00
46129;BME280;31860;45.186;5.790;2024-03-22T01:21:48;99716.03;;;18.27;100.00
46129;BME280;31860;45.186;5.790;2024-03-22T01:24:14;99716.03;;;18.29;100.00
46129;BME280;31860;45.186;5.790;2024-03-22T01:26:40;99712.56;;;18.25;100.00
46129;BME280;31860;45.186;5.790;2024-03-22T01:29:05;99707.41;;;18.21;100.00
46129;BME280;31860;45.186;5.790;2024-03-22T01:31:30;99704.84;;;18.16;100.00
46129;BME280;31860;45.186;5.790;2024-03-22T01:33:56;99704.00;;;18.14;100.00
46129;BME280;31860;45.186;5.790;2024-03-22T01:36:21;99711.13;;;18.11;100.00
46129;BME280;31860;45.186;5.790;2024-03-22T01:38:46;99700.75;;;18.02;100.00
46129;BME280;31860;45.186;5.790;2024-03-22T01:41:12;99702.56;;;17.99;100.00
46129;BME280;31860;45.186;5.790;2024-03-22T01:43:37;99707.03;;;17.97;100.00
46129;BME280;31860;45.186;5.790;2024-03-22T01:46:04;99702.63;;;17.98;100.00
46129;BME280;31860;45.186;5.790;2024-03-22T01:48:30;99703.50;;;17.98;100.00
46129;BME280;31860;45.186;5.790;2024-03-22T01:50:55;99697.25;;;18.01;100.00
46129;BME280;31860;45.186;5.790;2024-03-22T01:53:22;99693.75;;;17.99;100.00
46129;BME280;31860;45.186;5.790;2024-03-22T01:55:48;99691.16;;;17.97;100.00
46129;BME280;31860;45.186;5.790;2024-03-22T01:58:14;99693.03;;;17.92;100.00
46129;BME280;31860;45.186;5.790;2024-03-22T02:00:39;99697.50;;;17.90;100.00
46129;BME280;31860;45.186;5.790;2024-03-22T02:03:05;99695.81;;;17.86;100.00
46129;BME280;31860;45.186;5.790;2024-03-22T02:05:30;99692.25;;;17.87;100.00
46129;BME280;31860;45.186;5.790;2024-03-22T02:07:56;99694.09;;;17.84;100.00
46129;BME280;31860;45.186;5.790;2024-03-22T02:10:21;99697.69;;;17.81;100.00
46129;BME280;31860;45.186;5.790;2024-03-22T02:12:46;99693.31;;;17.79;100.00
46129;BME280;31860;45.186;5.790;2024-03-22T02:15:12;99692.50;;;17.77;100.00
46129;BME280;31860;45.186;5.790;2024-03-22T02:17:37;99683.84;;;17.70;100.00
46129;BME280;31860;45.186;5.790;2024-03-22T02:20:03;99689.31;;;17.60;100.00
46129;BME280;31860;45.186;5.790;2024-03-22T02:22:31;99675.22;;;17.59;100.00
46129;BME280;31860;45.186;5.790;2024-03-22T02:24:56;99688.47;;;17.58;100.00
46129;BME280;31860;45.186;5.790;2024-03-22T02:27:22;99682.50;;;17.48;100.00
46129;BME280;31860;45.186;5.790;2024-03-22T02:29:47;99674.59;;;17.47;100.00
46129;BME280;31860;45.186;5.790;2024-03-22T02:32:13;99679.94;;;17.42;100.00
46129;BME280;31860;45.186;5.790;2024-03-22T02:34:38;99679.94;;;17.42;100.00
46129;BME280;31860;45.186;5.790;2024-03-22T02:37:03;99680.81;;;17.43;100.00
46129;BME280;31860;45.186;5.790;2024-03-22T02:39:29;99677.31;;;17.42;100.00
46129;BME280;31860;45.186;5.790;2024-03-22T02:41:55;99671.19;;;17.42;100.00
46129;BME280;31860;45.186;5.790;2024-03-22T02:44:21;99679.00;;;17.46;100.00
46129;BME280;31860;45.186;5.790;2024-03-22T02:46:46;99673.63;;;17.52;100.00
46129;BME280;31860;45.186;5.790;2024-03-22T02:49:12;99674.59;;;17.48;100.00
46129;BME280;31860;45.186;5.790;2024-03-22T02:51:38;99674.59;;;17.48;100.00
46129;BME280;31860;45.186;5.790;2024-03-22T02:54:04;99677.31;;;17.44;100.00
46129;BME280;31860;45.186;5.790;2024-03-22T02:56:29;99664.06;;;17.45;100.00
46129;BME280;31860;45.186;5.790;2024-03-22T02:58:55;99666.75;;;17.42;100.00
46129;BME280;31860;45.186;5.790;2024-03-22T03:01:20;99670.22;;;17.46;100.00
46129;BME280;31860;45.186;5.790;2024-03-22T03:03:46;99664.09;;;17.44;100.00
46129;BME280;31860;45.186;5.790;2024-03-22T03:06:11;99660.56;;;17.43;100.00
46129;BME280;31860;45.186;5.790;2024-03-22T03:08:39;99651.78;;;17.43;100.00
46129;BME280;31860;45.186;5.790;2024-03-22T03:11:04;99661.59;;;17.36;100.00
46129;BME280;31860;45.186;5.790;2024-03-22T03:13:30;99651.03;;;17.35;100.00
46129;BME280;31860;45.186;5.790;2024-03-22T03:15:57;99650.25;;;17.33;100.00
46129;BME280;31860;45.186;5.790;2024-03-22T03:18:22;99654.69;;;17.31;100.00
46129;BME280;31860;45.186;5.790;2024-03-22T03:20:48;99664.34;;;17.30;100.00
46129;BME280;31860;45.186;5.790;2024-03-22T03:23:13;99661.75;;;17.29;100.00
46129;BME280;31860;45.186;5.790;2024-03-22T03:25:39;99657.31;;;17.31;100.00
46129;BME280;31860;45.186;5.790;2024-03-22T03:28:05;99664.25;;;17.35;100.00
46129;BME280;31860;45.186;5.790;2024-03-22T03:30:32;99659.13;;;17.27;100.00
46129;BME280;31860;45.186;5.790;2024-03-22T03:32:58;99656.38;;;17.33;100.00
46129;BME280;31860;45.186;5.790;2024-03-22T03:35:23;99657.28;;;17.32;100.00
46129;BME280;31860;45.186;5.790;2024-03-22T03:37:49;99656.47;;;17.29;100.00
46129;BME280;31860;45.186;5.790;2024-03-22T03:40:14;99652.91;;;17.30;100.00
46129;BME280;31860;45.186;5.790;2024-03-22T03:42:40;99661.75;;;17.29;100.00
46129;BME280;31860;45.186;5.790;2024-03-22T03:45:06;99654.69;;;17.31;100.00
46129;BME280;31860;45.186;5.790;2024-03-22T03:47:31;99656.44;;;17.30;100.00
46129;BME280;31860;45.186;5.790;2024-03-22T03:49:57;99653.03;;;17.24;100.00
46129;BME280;31860;45.186;5.790;2024-03-22T03:52:23;99646.91;;;17.23;100.00
46129;BME280;31860;45.186;5.790;2024-03-22T03:54:48;99643.41;;;17.20;100.00
46129;BME280;31860;45.186;5.790;2024-03-22T03:57:13;99641.59;;;17.25;100.00
46129;BME280;31860;45.186;5.790;2024-03-22T03:59:39;99638.94;;;17.25;100.00
46129;BME280;31860;45.186;5.790;2024-03-22T04:02:04;99640.72;;;17.24;100.00
46129;BME280;31860;45.186;5.790;2024-03-22T04:04:30;99639.06;;;17.19;100.00
46129;BME280;31860;45.186;5.790;2024-03-22T04:06:55;99641.78;;;17.16;100.00
46129;BME280;31860;45.186;5.790;2024-03-22T04:09:21;99634.84;;;17.08;100.00
46129;BME280;31860;45.186;5.790;2024-03-22T04:11:46;99634.03;;;17.05;100.00
46129;BME280;31860;45.186;5.790;2024-03-22T04:14:13;99635.94;;;16.98;100.00
46129;BME280;31860;45.186;5.790;2024-03-22T04:16:38;99642.06;;;16.99;100.00
46129;BME280;31860;45.186;5.790;2024-03-22T04:19:03;99637.63;;;17.02;100.00
46129;BME280;31860;45.186;5.790;2024-03-22T04:21:29;99638.47;;;17.03;100.00
46129;BME280;31860;45.186;5.790;2024-03-22T04:23:54;99628.94;;;16.96;100.00
46129;BME280;31860;45.186;5.790;2024-03-22T04:26:20;99639.56;;;16.93;100.00
46129;BME280;31860;45.186;5.790;2024-03-22T04:28:46;99638.78;;;16.86;100.00
46129;BME280;31860;45.186;5.790;2024-03-22T04:31:11;99635.22;;;16.89;100.00
46129;BME280;31860;45.186;5.790;2024-03-22T04:33:37;99629.19;;;16.82;100.00
46129;BME280;31860;45.186;5.790;2024-03-22T04:36:03;99638.84;;;16.82;100.00
46129;BME280;31860;45.186;5.790;2024-03-22T04:38:29;99639.75;;;16.82;100.00
46129;BME280;31860;45.186;5.790;2024-03-22T04:40:56;99640.75;;;16.75;100.00
46129;BME280;31860;45.186;5.790;2024-03-22T04:43:23;99653.03;;;16.78;100.00
46129;BME280;31860;45.186;5.790;2024-03-22T04:45:49;99643.47;;;16.71;100.00
46129;BME280;31860;45.186;5.790;2024-03-22T04:48:17;99643.56;;;16.66;100.00
46129;BME280;31860;45.186;5.790;2024-03-22T04:50:44;99642.63;;;16.69;100.00
46129;BME280;31860;45.186;5.790;2024-03-22T04:53:10;99651.50;;;16.65;100.00
46129;BME280;31860;45.186;5.790;2024-03-22T04:55:35;99647.91;;;16.67;100.00
46129;BME280;31860;45.186;5.790;2024-03-22T04:58:01;99658.41;;;16.72;100.00
46129;BME280;31860;45.186;5.790;2024-03-22T05:00:29;99659.16;;;16.78;100.00
46129;BME280;31860;45.186;5.790;2024-03-22T05:02:55;99665.19;;;16.86;100.00
46129;BME280;31860;45.186;5.790;2024-03-22T05:05:20;99672.06;;;16.93;100.00
46129;BME280;31860;45.186;5.790;2024-03-22T05:07:45;99681.72;;;16.96;100.00
46129;BME280;31860;45.186;5.790;2024-03-22T05:10:12;99676.38;;;16.99;100.00
46129;BME280;31860;45.186;5.790;2024-03-22T05:12:37;99677.25;;;16.99;100.00
46129;BME280;31860;45.186;5.790;2024-03-22T05:15:03;99664.97;;;16.98;100.00
46129;BME280;31860;45.186;5.790;2024-03-22T05:17:29;99669.38;;;16.98;100.00
46129;BME280;31860;45.186;5.790;2024-03-22T05:19:57;99673.84;;;16.94;100.00
46129;BME280;31860;45.186;5.790;2024-03-22T05:22:22;99679.91;;;16.99;100.00
46129;BME280;31860;45.186;5.790;2024-03-22T05:24:48;99682.59;;;16.96;100.00
46129;BME280;31860;45.186;5.790;2024-03-22T05:27:13;99689.59;;;16.97;100.00
46129;BME280;31860;45.186;5.790;2024-03-22T05:29:38;99681.72;;;16.96;100.00
46129;BME280;31860;45.186;5.790;2024-03-22T05:32:06;99685.97;;;17.03;100.00
46129;BME280;31860;45.186;5.790;2024-03-22T05:34:31;99678.03;;;17.04;100.00
46129;BME280;31860;45.186;5.790;2024-03-22T05:36:56;99688.63;;;17.03;100.00
46129;BME280;31860;45.186;5.790;2024-03-22T05:39:22;99691.28;;;17.01;100.00
46129;BME280;31860;45.186;5.790;2024-03-22T05:41:47;99688.59;;;17.04;100.00
46129;BME280;31860;45.186;5.790;2024-03-22T05:44:12;99691.97;;;17.13;100.00
46129;BME280;31860;45.186;5.790;2024-03-22T05:46:38;99691.22;;;17.06;100.00
46129;BME280;31860;45.186;5.790;2024-03-22T05:49:03;99689.41;;;17.10;100.00
46129;BME280;31860;45.186;5.790;2024-03-22T05:51:28;99689.31;;;17.13;100.00
46129;BME280;31860;45.186;5.790;2024-03-22T05:53:56;99690.22;;;17.13;100.00
46129;BME280;31860;45.186;5.790;2024-03-22T05:56:22;99690.25;;;17.12;100.00
46129;BME280;31860;45.186;5.790;2024-03-22T05:58:47;99681.44;;;17.11;100.00
46129;BME280;31860;45.186;5.790;2024-03-22T06:01:13;99684.13;;;17.10;100.00
46129;BME280;31860;45.186;5.790;2024-03-22T06:03:38;99685.91;;;17.08;100.00
46129;BME280;31860;45.186;5.790;2024-03-22T06:06:04;99683.38;;;17.01;100.00
46129;BME280;31860;45.186;5.790;2024-03-22T06:08:30;99675.56;;;16.95;100.00
46129;BME280;31860;45.186;5.790;2024-03-22T06:10:57;99685.34;;;16.90;100.00
46129;BME280;31860;45.186;5.790;2024-03-22T06:13:22;99687.03;;;16.94;100.00
46129;BME280;31860;45.186;5.790;2024-03-22T06:15:48;99681.84;;;16.88;100.00
46129;BME280;31860;45.186;5.790;2024-03-22T06:18:14;99675.72;;;16.86;100.00
46129;BME280;31860;45.186;5.790;2024-03-22T06:20:39;99679.22;;;16.88;100.00
46129;BME280;31860;45.186;5.790;2024-03-22T06:23:05;99686.25;;;16.88;100.00
46129;BME280;31860;45.186;5.790;2024-03-22T06:25:30;99686.22;;;16.91;100.00
46129;BME280;31860;45.186;5.790;2024-03-22T06:27:56;99687.06;;;16.93;100.00
46129;BME280;31860;45.186;5.790;2024-03-22T06:30:21;99694.09;;;16.92;100.00
46129;BME280;31860;45.186;5.790;2024-03-22T06:32:47;99681.78;;;16.93;100.00
46129;BME280;31860;45.186;5.790;2024-03-22T06:35:12;99686.19;;;16.92;100.00
46129;BME280;31860;45.186;5.790;2024-03-22T06:37:39;99685.38;;;16.89;100.00
46129;BME280;31860;45.186;5.790;2024-03-22T06:40:06;99680.81;;;16.97;100.00
46129;BME280;31860;45.186;5.790;2024-03-22T06:42:32;99693.91;;;17.03;100.00
46129;BME280;31860;45.186;5.790;2024-03-22T06:44:57;99695.69;;;17.02;100.00
46129;BME280;31860;45.186;5.790;2024-03-22T06:47:22;99690.38;;;17.04;100.00
46129;BME280;31860;45.186;5.790;2024-03-22T06:49:48;99693.72;;;17.12;100.00
46129;BME280;31860;45.186;5.790;2024-03-22T06:52:14;99689.16;;;17.22;100.00
46129;BME280;31860;45.186;5.790;2024-03-22T06:54:40;99683.88;;;17.22;100.00
46129;BME280;31860;45.186;5.790;2024-03-22T06:57:06;99687.44;;;17.21;100.00
46129;BME280;31860;45.186;5.790;2024-03-22T06:59:31;99688.19;;;17.26;100.00
46129;BME280;31860;45.186;5.790;2024-03-22T07:01:57;99685.53;;;17.29;100.00
46129;BME280;31860;45.186;5.790;2024-03-22T07:04:22;99685.50;;;17.30;100.00
46129;BME280;31860;45.186;5.790;2024-03-22T07:06:48;99680.16;;;17.32;100.00
46129;BME280;31860;45.186;5.790;2024-03-22T07:09:13;99681.78;;;17.39;100.00
46129;BME280;31860;45.186;5.790;2024-03-22T07:11:39;99683.44;;;17.46;100.00
46129;BME280;31860;45.186;5.790;2024-03-22T07:14:05;99693.03;;;17.51;100.00
46129;BME280;31860;45.186;5.790;2024-03-22T07:16:30;99693.81;;;17.56;100.00
46129;BME280;31860;45.186;5.790;2024-03-22T07:18:56;99685.78;;;17.59;100.00
46129;BME280;31860;45.186;5.790;2024-03-22T07:21:21;99694.56;;;17.61;100.00
46129;BME280;31860;45.186;5.790;2024-03-22T07:23:47;99693.72;;;17.59;100.00
46129;BME280;31860;45.186;5.790;2024-03-22T07:26:12;99688.59;;;17.52;100.00
46129;BME280;31860;45.186;5.790;2024-03-22T07:28:37;99690.41;;;17.50;100.00
46129;BME280;31860;45.186;5.790;2024-03-22T07:31:03;99684.19;;;17.52;100.00
46129;BME280;31860;45.186;5.790;2024-03-22T07:33:28;99693.03;;;17.51;100.00
46129;BME280;31860;45.186;5.790;2024-03-22T07:35:54;99692.91;;;17.56;100.00
46129;BME280;31860;45.186;5.790;2024-03-22T07:38:20;99694.72;;;17.55;100.00
46129;BME280;31860;45.186;5.790;2024-03-22T07:40:46;99695.53;;;17.59;100.00
46129;BME280;31860;45.186;5.790;2024-03-22T07:43:12;99694.59;;;17.60;100.00
46129;BME280;31860;45.186;5.790;2024-03-22T07:45:38;99698.84;;;17.68;100.00
46129;BME280;31860;45.186;5.790;2024-03-22T07:48:04;99697.06;;;17.70;100.00
46129;BME280;31860;45.186;5.790;2024-03-22T07:50:30;99706.63;;;17.74;100.00
46129;BME280;31860;45.186;5.790;2024-03-22T07:52:55;99695.91;;;17.82;100.00
46129;BME280;31860;45.186;5.790;2024-03-22T07:55:22;99694.84;;;17.90;100.00
46129;BME280;31860;45.186;5.790;2024-03-22T07:57:48;99698.22;;;17.97;100.00
46129;BME280;31860;45.186;5.790;2024-03-22T08:00:13;99704.25;;;18.04;100.00
46129;BME280;31860;45.186;5.790;2024-03-22T08:02:39;99702.31;;;18.12;100.00
46129;BME280;31860;45.186;5.790;2024-03-22T08:05:06;99702.22;;;18.15;100.00
46129;BME280;31860;45.186;5.790;2024-03-22T08:07:31;99694.97;;;18.24;100.00
46129;BME280;31860;45.186;5.790;2024-03-22T08:09:57;99697.38;;;18.33;100.00
46129;BME280;31860;45.186;5.790;2024-03-22T08:12:24;99703.38;;;18.43;100.00
46129;BME280;31860;45.186;5.790;2024-03-22T08:14:49;99704.03;;;18.52;100.00
46129;BME280;31860;45.186;5.790;2024-03-22T08:17:16;99693.22;;;18.61;100.00
46129;BME280;31860;45.186;5.790;2024-03-22T08:19:41;99694.78;;;18.70;100.00
46129;BME280;31860;45.186;5.790;2024-03-22T08:22:07;99693.56;;;18.83;100.00
46129;BME280;31860;45.186;5.790;2024-03-22T08:24:32;99696.75;;;18.96;100.00
46129;BME280;31860;45.186;5.790;2024-03-22T08:26:59;99685.91;;;19.06;100.00
46129;BME280;31860;45.186;5.790;2024-03-22T08:29:24;99686.50;;;19.16;100.00
46129;BME280;31860;45.186;5.790;2024-03-22T08:31:49;99692.41;;;19.27;100.00
46129;BME280;31860;45.186;5.790;2024-03-22T08:34:15;99680.72;;;19.35;100.00
46129;BME280;31860;45.186;5.790;2024-03-22T08:36:40;99686.63;;;19.45;100.00
46129;BME280;31860;45.186;5.790;2024-03-22T08:39:05;99685.53;;;19.52;100.00
46129;BME280;31860;45.186;5.790;2024-03-22T08:41:33;99685.28;;;19.61;100.00
46129;BME280;31860;45.186;5.790;2024-03-22T08:43:58;99681.56;;;19.68;100.00
46129;BME280;31860;45.186;5.790;2024-03-22T08:46:24;99679.53;;;19.76;100.00
46129;BME280;31860;45.186;5.790;2024-03-22T08:48:51;99681.06;;;19.84;100.00
46129;BME280;31860;45.186;5.790;2024-03-22T08:51:17;99678.19;;;19.92;100.00
46129;BME280;31860;45.186;5.790;2024-03-22T08:53:42;99680.66;;;19.98;100.00
46129;BME280;31860;45.186;5.790;2024-03-22T08:56:08;99676.19;;;19.99;100.00
46129;BME280;31860;45.186;5.790;2024-03-22T08:58:33;99674.13;;;20.10;100.00
46129;BME280;31860;45.186;5.790;2024-03-22T09:00:58;99675.59;;;20.20;100.00
46129;BME280;31860;45.186;5.790;2024-03-22T09:03:24;99675.28;;;20.29;100.00
46129;BME280;31860;45.186;5.790;2024-03-22T09:05:52;99677.69;;;20.38;100.00
46129;BME280;31860;45.186;5.790;2024-03-22T09:08:19;99673.13;;;20.41;100.00
46129;BME280;31860;45.186;5.790;2024-03-22T09:10:46;99671.13;;;20.48;100.00
46129;BME280;31860;45.186;5.790;2024-03-22T09:13:12;99662.09;;;20.53;100.00
46129;BME280;31860;45.186;5.790;2024-03-22T09:15:38;99668.16;;;20.58;100.00
46129;BME280;31860;45.186;5.790;2024-03-22T09:18:04;99667.09;;;20.64;100.00
46129;BME280;31860;45.186;5.790;2024-03-22T09:20:29;99666.78;;;20.73;100.00
46129;BME280;31860;45.186;5.790;2024-03-22T09:22:54;99668.41;;;20.77;100.00
46129;BME280;31860;45.186;5.790;2024-03-22T09:25:20;99663.84;;;20.81;100.00
46129;BME280;31860;45.186;5.790;2024-03-22T09:27:46;99659.22;;;20.87;100.00
46129;BME280;31860;45.186;5.790;2024-03-22T09:30:12;99657.16;;;20.95;100.00
46129;BME280;31860;45.186;5.790;2024-03-22T09:32:37;99654.25;;;21.03;100.00
46129;BME280;31860;45.186;5.790;2024-03-22T09:35:03;99654.72;;;21.15;100.00
46129;BME280;31860;45.186;5.790;2024-03-22T09:37:29;99658.63;;;21.30;100.00
46129;BME280;31860;45.186;5.790;2024-03-22T09:39:54;99653.03;;;21.37;100.00
46129;BME280;31860;45.186;5.790;2024-03-22T09:42:22;99647.16;;;21.52;100.00
46129;BME280;31860;45.186;5.790;2024-03-22T09:44:48;99651.16;;;21.64;100.00
46129;BME280;31860;45.186;5.790;2024-03-22T09:47:16;99648.19;;;21.72;100.00
46129;BME280;31860;45.186;5.790;2024-03-22T09:49:42;99649.56;;;21.83;100.00
46129;BME280;31860;45.186;5.790;2024-03-22T09:52:12;99638.50;;;21.94;100.00
46129;BME280;31860;45.186;5.790;2024-03-22T09:54:38;99643.34;;;22.06;100.00
46129;BME280;31860;45.186;5.790;2024-03-22T09:57:04;99633.22;;;22.15;100.00
46129;BME280;31860;45.186;5.790;2024-03-22T09:59:30;99629.31;;;22.24;100.00
46129;BME280;31860;45.186;5.790;2024-03-22T10:01:56;99629.78;;;22.33;100.00
46129;BME280;31860;45.186;5.790;2024-03-22T10:04:23;99627.69;;;22.41;100.00
46129;BME280;31860;45.186;5.790;2024-03-22T10:06:49;99628.38;;;22.46;100.00
46129;BME280;31860;45.186;5.790;2024-03-22T10:09:15;99622.78;;;22.52;100.00
46129;BME280;31860;45.186;5.790;2024-03-22T10:11:41;99619.78;;;22.62;100.00
46129;BME280;31860;45.186;5.790;2024-03-22T10:14:06;99619.28;;;22.74;100.00
46129;BME280;31860;45.186;5.790;2024-03-22T10:16:34;99624.19;;;22.83;100.00
46129;BME280;31860;45.186;5.790;2024-03-22T10:19:00;99622.13;;;22.89;100.00
46129;BME280;31860;45.186;5.790;2024-03-22T10:21:25;99616.44;;;22.98;100.00
46129;BME280;31860;45.186;5.790;2024-03-22T10:23:53;99618.69;;;23.07;100.00
46129;BME280;31860;45.186;5.790;2024-03-22T10:26:18;99610.59;;;23.09;100.00
46129;BME280;31860;45.186;5.790;2024-03-22T10:28:47;99611.94;;;23.19;100.00
46129;BME280;31860;45.186;5.790;2024-03-22T10:31:13;99605.16;;;23.32;100.00
46129;BME280;31860;45.186;5.790;2024-03-22T10:33:40;99604.47;;;23.47;100.00
46129;BME280;31860;45.186;5.790;2024-03-22T10:36:06;99598.78;;;23.55;100.00
46129;BME280;31860;45.186;5.790;2024-03-22T10:38:33;99593.81;;;23.66;100.00
46129;BME280;31860;45.186;5.790;2024-03-22T10:41:01;99586.38;;;23.72;100.00
46129;BME280;31860;45.186;5.790;2024-03-22T10:43:27;99579.88;;;23.78;100.00
46129;BME280;31860;45.186;5.790;2024-03-22T10:45:56;99576.47;;;23.93;100.00
46129;BME280;31860;45.186;5.790;2024-03-22T10:48:25;99566.22;;;24.04;100.00
46129;BME280;31860;45.186;5.790;2024-03-22T10:50:55;99560.03;;;24.20;100.00
46129;BME280;31860;45.186;5.790;2024-03-22T10:53:25;99555.56;;;24.38;100.00
46129;BME280;31860;45.186;5.790;2024-03-22T10:55:53;99550.50;;;24.51;100.00
46129;BME280;31860;45.186;5.790;2024-03-22T10:58:22;99538.84;;;24.69;100.00
46129;BME280;31860;45.186;5.790;2024-03-22T11:00:51;99545.31;;;24.82;99.14
46129;BME280;31860;45.186;5.790;2024-03-22T11:03:21;99530.44;;;24.93;100.00
46129;BME280;31860;45.186;5.790;2024-03-22T11:05:53;99528.16;;;25.03;97.37
46129;BME280;31860;45.186;5.790;2024-03-22T11:08:30;99523.88;;;25.16;95.98
46129;BME280;31860;45.186;5.790;2024-03-22T11:11:09;99515.44;;;25.23;92.58
46129;BME280;31860;45.186;5.790;2024-03-22T11:13:36;99520.03;;;25.37;98.46
46129;BME280;31860;45.186;5.790;2024-03-22T11:16:02;99504.88;;;25.53;95.83
46129;BME280;31860;45.186;5.790;2024-03-22T11:18:27;99507.41;;;25.72;94.22
46129;BME280;31860;45.186;5.790;2024-03-22T11:20:53;99489.63;;;25.86;93.58
46129;BME280;31860;45.186;5.790;2024-03-22T11:23:19;99487.84;;;26.01;91.22
46129;BME280;31860;45.186;5.790;2024-03-22T11:25:45;99480.09;;;26.12;88.51
46129;BME280;31860;45.186;5.790;2024-03-22T11:28:11;99480.25;;;26.24;87.80
46129;BME280;31860;45.186;5.790;2024-03-22T11:30:37;99468.69;;;26.38;84.55
46129;BME280;31860;45.186;5.790;2024-03-22T11:33:04;99463.94;;;26.43;84.20
46129;BME280;31860;45.186;5.790;2024-03-22T11:35:30;99464.06;;;26.56;83.78
46129;BME280;31860;45.186;5.790;2024-03-22T11:37:55;99465.22;;;26.66;82.23
46129;BME280;31860;45.186;5.790;2024-03-22T11:40:25;99457.59;;;26.74;80.78
46129;BME280;31860;45.186;5.790;2024-03-22T11:42:52;99442.66;;;26.84;81.04
46129;BME280;31860;45.186;5.790;2024-03-22T11:45:19;99441.41;;;26.89;80.01
46129;BME280;31860;45.186;5.790;2024-03-22T11:47:46;99432.63;;;27.01;78.69
46129;BME280;31860;45.186;5.790;2024-03-22T11:50:12;99429.44;;;27.09;76.35
46129;BME280;31860;45.186;5.790;2024-03-22T11:52:44;99420.16;;;27.14;72.90
46129;BME280;31860;45.186;5.790;2024-03-22T11:55:11;99406.84;;;27.13;74.08
46129;BME280;31860;45.186;5.790;2024-03-22T11:57:37;99406.25;;;27.22;73.21
46129;BME280;31860;45.186;5.790;2024-03-22T12:00:03;99403.16;;;27.28;72.61
46129;BME280;31860;45.186;5.790;2024-03-22T12:02:33;99385.84;;;27.34;72.89
46129;BME280;31860;45.186;5.790;2024-03-22T12:05:00;99385.53;;;27.38;69.96
46129;BME280;31860;45.186;5.790;2024-03-22T12:07:25;99374.88;;;27.37;70.56
46129;BME280;31860;45.186;5.790;2024-03-22T12:09:51;99367.19;;;27.31;69.15
46129;BME280;31860;45.186;5.790;2024-03-22T12:12:17;99362.91;;;27.28;69.72
46129;BME280;31860;45.186;5.790;2024-03-22T12:14:42;99359.66;;;27.23;68.27
46129;BME280;31860;45.186;5.790;2024-03-22T12:17:08;99350.19;;;27.17;65.42
46129;BME280;31860;45.186;5.790;2024-03-22T12:19:34;99338.41;;;27.06;63.98
46129;BME280;31860;45.186;5.790;2024-03-22T12:22:00;99331.56;;;27.02;64.69
46129;BME280;31860;45.186;5.790;2024-03-22T12:24:26;99335.56;;;26.95;64.94
46129;BME280;31860;45.186;5.790;2024-03-22T12:26:54;99322.47;;;26.90;62.62
46129;BME280;31860;45.186;5.790;2024-03-22T12:29:20;99318.44;;;26.83;62.55
46129;BME280;31860;45.186;5.790;2024-03-22T12:31:46;99310.88;;;26.76;63.25
46129;BME280;31860;45.186;5.790;2024-03-22T12:34:12;99299.97;;;26.65;62.45
46129;BME280;31860;45.186;5.790;2024-03-22T12:36:37;99302.19;;;26.58;61.98
46129;BME280;31860;45.186;5.790;2024-03-22T12:39:03;99281.31;;;26.49;60.04
46129;BME280;31860;45.186;5.790;2024-03-22T12:41:28;99284.50;;;26.42;58.38
46129;BME280;31860;45.186;5.790;2024-03-22T12:43:55;99283.22;;;26.33;56.08